sensor_id;sensor_type;location;lat;lon;timestamp;P1;durP1;ratioP1;P2;durP2;ratioP2
21639;SDS011;10981;45.462;10.974;2023-10-13T00:01:25;43.92;;;23.95;;
21639;SDS011;10981;45.462;10.974;2023-10-13T00:03:53;42.58;;;25.17;;
21639;SDS011;10981;45.462;10.974;2023-10-13T00:06:22;43.90;;;25.45;;
21639;SDS011;10981;45.462;10.974;2023-10-13T00:08:50;44.20;;;24.13;;
21639;SDS011;10981;45.462;10.974;2023-10-13T00:11:18;44.63;;;24.80;;
21639;SDS011;10981;45.462;10.974;2023-10-13T00:13:49;42.30;;;25.15;;
21639;SDS011;10981;45.462;10.974;2023-10-13T00:16:21;38.08;;;25.55;;
21639;SDS011;10981;45.462;10.974;2023-10-13T00:18:54;45.45;;;25.27;;
21639;SDS011;10981;45.462;10.974;2023-10-13T00:21:24;44.22;;;25.10;;
21639;SDS011;10981;45.462;10.974;2023-10-13T00:23:59;47.15;;;25.75;;
21639;SDS011;10981;45.462;10.974;2023-10-13T00:26:29;47.60;;;26.23;;
21639;SDS011;10981;45.462;10.974;2023-10-13T00:29:00;41.97;;;23.83;;
21639;SDS011;10981;45.462;10.974;2023-10-13T00:31:33;46.67;;;26.08;;
21639;SDS011;10981;45.462;10.974;2023-10-13T00:34:11;41.53;;;24.20;;
21639;SDS011;10981;45.462;10.974;2023-10-13T00:36:45;36.72;;;23.65;;
21639;SDS011;10981;45.462;10.974;2023-10-13T00:39:34;42.83;;;25.33;;
21639;SDS011;10981;45.462;10.974;2023-10-13T00:42:17;39.60;;;22.67;;
21639;SDS011;10981;45.462;10.974;2023-10-13T00:44:47;46.92;;;24.95;;
21639;SDS011;10981;45.462;10.974;2023-10-13T00:47:16;40.45;;;23.40;;
21639;SDS011;10981;45.462;10.974;2023-10-13T00:50:04;41.90;;;23.17;;
21639;SDS011;10981;45.462;10.974;2023-10-13T00:52:33;36.10;;;22.67;;
21639;SDS011;10981;45.462;10.974;2023-10-13T00:55:04;45.53;;;24.42;;
21639;SDS011;10981;45.462;10.974;2023-10-13T01:00:08;43.78;;;24.30;;
21639;SDS011;10981;45.462;10.974;2023-10-13T01:02:55;37.00;;;22.80;;
21639;SDS011;10981;45.462;10.974;2023-10-13T01:05:24;46.20;;;24.70;;
21639;SDS011;10981;45.462;10.974;2023-10-13T01:07:53;48.35;;;24.83;;
21639;SDS011;10981;45.462;10.974;2023-10-13T01:10:22;43.72;;;24.92;;
21639;SDS011;10981;45.462;10.974;2023-10-13T01:12:56;39.78;;;23.40;;
21639;SDS011;10981;45.462;10.974;2023-10-13T01:15:26;42.92;;;24.65;;
21639;SDS011;10981;45.462;10.974;2023-10-13T01:18:07;40.80;;;25.80;;
21639;SDS011;10981;45.462;10.974;2023-10-13T01:20:40;49.77;;;26.17;;
21639;SDS011;10981;45.462;10.974;2023-10-13T01:23:19;44.63;;;25.23;;
21639;SDS011;10981;45.462;10.974;2023-10-13T01:25:51;40.47;;;25.77;;
21639;SDS011;10981;45.462;10.974;2023-10-13T01:28:21;40.80;;;24.42;;
21639;SDS011;10981;45.462;10.974;2023-10-13T01:30:49;43.17;;;24.38;;
21639;SDS011;10981;45.462;10.974;2023-10-13T01:33:18;51.80;;;25.83;;
21639;SDS011;10981;45.462;10.974;2023-10-13T01:35:55;46.55;;;25.33;;
21639;SDS011;10981;45.462;10.974;2023-10-13T01:38:26;40.63;;;24.83;;
21639;SDS011;10981;45.462;10.974;2023-10-13T01:40:55;43.80;;;24.77;;
21639;SDS011;10981;45.462;10.974;2023-10-13T01:43:26;40.38;;;23.00;;
21639;SDS011;10981;45.462;10.974;2023-10-13T01:45:54;38.72;;;23.00;;
21639;SDS011;10981;45.462;10.974;2023-10-13T01:48:22;42.65;;;23.80;;
21639;SDS011;10981;45.462;10.974;2023-10-13T01:50:51;36.22;;;21.88;;
21639;SDS011;10981;45.462;10.974;2023-10-13T01:53:26;41.72;;;22.25;;
21639;SDS011;10981;45.462;10.974;2023-10-13T01:55:56;40.00;;;23.02;;
21639;SDS011;10981;45.462;10.974;2023-10-13T01:58:25;38.78;;;23.35;;
21639;SDS011;10981;45.462;10.974;2023-10-13T02:00:56;41.75;;;22.45;;
21639;SDS011;10981;45.462;10.974;2023-10-13T02:03:26;41.50;;;23.13;;
21639;SDS011;10981;45.462;10.974;2023-10-13T02:05:57;41.38;;;24.05;;
21639;SDS011;10981;45.462;10.974;2023-10-13T02:08:31;47.63;;;23.40;;
21639;SDS011;10981;45.462;10.974;2023-10-13T02:11:00;39.63;;;23.05;;
21639;SDS011;10981;45.462;10.974;2023-10-13T02:13:34;38.15;;;23.27;;
21639;SDS011;10981;45.462;10.974;2023-10-13T02:16:16;43.63;;;24.63;;
21639;SDS011;10981;45.462;10.974;2023-10-13T02:21:24;40.50;;;24.73;;
21639;SDS011;10981;45.462;10.974;2023-10-13T02:23:58;45.20;;;25.25;;
21639;SDS011;10981;45.462;10.974;2023-10-13T02:26:30;50.83;;;27.60;;
21639;SDS011;10981;45.462;10.974;2023-10-13T02:28:59;45.90;;;26.27;;
21639;SDS011;10981;45.462;10.974;2023-10-13T02:31:35;48.60;;;25.48;;
21639;SDS011;10981;45.462;10.974;2023-10-13T02:34:05;57.22;;;28.00;;
21639;SDS011;10981;45.462;10.974;2023-10-13T02:36:41;55.80;;;29.13;;
21639;SDS011;10981;45.462;10.974;2023-10-13T02:39:19;48.65;;;26.88;;
21639;SDS011;10981;45.462;10.974;2023-10-13T02:41:54;58.17;;;28.77;;
21639;SDS011;10981;45.462;10.974;2023-10-13T02:44:23;56.05;;;30.70;;
21639;SDS011;10981;45.462;10.974;2023-10-13T02:46:57;57.90;;;30.67;;
21639;SDS011;10981;45.462;10.974;2023-10-13T02:49:26;55.88;;;32.50;;
21639;SDS011;10981;45.462;10.974;2023-10-13T02:51:59;51.28;;;28.80;;
21639;SDS011;10981;45.462;10.974;2023-10-13T02:54:33;57.38;;;31.33;;
21639;SDS011;10981;45.462;10.974;2023-10-13T02:57:07;60.80;;;32.45;;
21639;SDS011;10981;45.462;10.974;2023-10-13T02:59:41;67.40;;;31.15;;
21639;SDS011;10981;45.462;10.974;2023-10-13T03:02:34;60.05;;;30.50;;
21639;SDS011;10981;45.462;10.974;2023-10-13T03:05:09;56.38;;;31.73;;
21639;SDS011;10981;45.462;10.974;2023-10-13T03:07:37;62.47;;;33.65;;
21639;SDS011;10981;45.462;10.974;2023-10-13T03:10:10;55.50;;;32.07;;
21639;SDS011;10981;45.462;10.974;2023-10-13T03:12:39;60.30;;;32.47;;
21639;SDS011;10981;45.462;10.974;2023-10-13T03:15:08;58.25;;;30.80;;
21639;SDS011;10981;45.462;10.974;2023-10-13T03:17:44;56.63;;;30.50;;
21639;SDS011;10981;45.462;10.974;2023-10-13T03:20:14;60.25;;;32.03;;
21639;SDS011;10981;45.462;10.974;2023-10-13T03:22:52;62.00;;;31.02;;
21639;SDS011;10981;45.462;10.974;2023-10-13T03:25:20;62.33;;;30.33;;
21639;SDS011;10981;45.462;10.974;2023-10-13T03:30:33;55.35;;;29.58;;
21639;SDS011;10981;45.462;10.974;2023-10-13T03:33:11;66.38;;;31.40;;
21639;SDS011;10981;45.462;10.974;2023-10-13T03:35:41;58.38;;;28.80;;
21639;SDS011;10981;45.462;10.974;2023-10-13T03:38:13;55.33;;;29.90;;
21639;SDS011;10981;45.462;10.974;2023-10-13T03:40:45;65.20;;;32.72;;
21639;SDS011;10981;45.462;10.974;2023-10-13T03:43:24;56.92;;;31.92;;
21639;SDS011;10981;45.462;10.974;2023-10-13T03:45:52;58.78;;;30.30;;
21639;SDS011;10981;45.462;10.974;2023-10-13T03:48:35;55.97;;;29.90;;
21639;SDS011;10981;45.462;10.974;2023-10-13T03:51:21;55.08;;;30.42;;
21639;SDS011;10981;45.462;10.974;2023-10-13T03:53:59;56.97;;;29.23;;
21639;SDS011;10981;45.462;10.974;2023-10-13T03:56:35;57.53;;;31.35;;
21639;SDS011;10981;45.462;10.974;2023-10-13T03:59:08;53.95;;;29.67;;
21639;SDS011;10981;45.462;10.974;2023-10-13T04:01:46;52.78;;;30.95;;
21639;SDS011;10981;45.462;10.974;2023-10-13T04:04:30;53.33;;;29.90;;
21639;SDS011;10981;45.462;10.974;2023-10-13T04:07:03;47.03;;;28.20;;
21639;SDS011;10981;45.462;10.974;2023-10-13T04:09:38;50.88;;;28.33;;
21639;SDS011;10981;45.462;10.974;2023-10-13T04:12:07;62.38;;;31.73;;
21639;SDS011;10981;45.462;10.974;2023-10-13T04:14:39;55.65;;;28.75;;
21639;SDS011;10981;45.462;10.974;2023-10-13T04:17:14;50.33;;;28.92;;
21639;SDS011;10981;45.462;10.974;2023-10-13T04:19:43;56.00;;;29.33;;
21639;SDS011;10981;45.462;10.974;2023-10-13T04:22:34;54.95;;;28.25;;
21639;SDS011;10981;45.462;10.974;2023-10-13T04:25:21;60.22;;;31.55;;
21639;SDS011;10981;45.462;10.974;2023-10-13T04:28:19;55.28;;;29.73;;
21639;SDS011;10981;45.462;10.974;2023-10-13T04:31:05;65.65;;;31.73;;
21639;SDS011;10981;45.462;10.974;2023-10-13T04:33:41;52.75;;;30.73;;
21639;SDS011;10981;45.462;10.974;2023-10-13T04:36:29;53.53;;;31.23;;
21639;SDS011;10981;45.462;10.974;2023-10-13T04:38:58;52.72;;;30.77;;
21639;SDS011;10981;45.462;10.974;2023-10-13T04:41:31;60.88;;;30.65;;
21639;SDS011;10981;45.462;10.974;2023-10-13T04:44:12;59.08;;;30.30;;
21639;SDS011;10981;45.462;10.974;2023-10-13T04:46:58;56.85;;;30.38;;
21639;SDS011;10981;45.462;10.974;2023-10-13T04:49:28;57.85;;;31.17;;
21639;SDS011;10981;45.462;10.974;2023-10-13T04:52:17;62.47;;;32.22;;
21639;SDS011;10981;45.462;10.974;2023-10-13T04:55:05;60.10;;;29.85;;
21639;SDS011;10981;45.462;10.974;2023-10-13T04:58:10;55.60;;;31.20;;
21639;SDS011;10981;45.462;10.974;2023-10-13T05:00:58;56.13;;;31.38;;
21639;SDS011;10981;45.462;10.974;2023-10-13T05:03:46;67.97;;;32.83;;
21639;SDS011;10981;45.462;10.974;2023-10-13T05:06:23;56.28;;;31.13;;
21639;SDS011;10981;45.462;10.974;2023-10-13T05:09:06;59.58;;;30.08;;
21639;SDS011;10981;45.462;10.974;2023-10-13T05:11:53;53.95;;;30.52;;
21639;SDS011;10981;45.462;10.974;2023-10-13T05:14:40;63.78;;;32.28;;
21639;SDS011;10981;45.462;10.974;2023-10-13T05:17:27;59.75;;;30.42;;
21639;SDS011;10981;45.462;10.974;2023-10-13T05:20:16;56.53;;;29.63;;
21639;SDS011;10981;45.462;10.974;2023-10-13T05:23:03;57.40;;;30.10;;
21639;SDS011;10981;45.462;10.974;2023-10-13T05:25:49;58.83;;;30.30;;
21639;SDS011;10981;45.462;10.974;2023-10-13T05:28:36;53.20;;;29.75;;
21639;SDS011;10981;45.462;10.974;2023-10-13T05:31:23;53.45;;;29.60;;
21639;SDS011;10981;45.462;10.974;2023-10-13T05:34:10;56.80;;;30.27;;
21639;SDS011;10981;45.462;10.974;2023-10-13T05:36:56;54.40;;;29.55;;
21639;SDS011;10981;45.462;10.974;2023-10-13T05:39:43;58.25;;;31.88;;
21639;SDS011;10981;45.462;10.974;2023-10-13T05:42:30;62.80;;;32.00;;
21639;SDS011;10981;45.462;10.974;2023-10-13T05:45:17;60.17;;;30.85;;
21639;SDS011;10981;45.462;10.974;2023-10-13T05:47:45;59.50;;;30.25;;
21639;SDS011;10981;45.462;10.974;2023-10-13T05:50:14;56.63;;;31.05;;
21639;SDS011;10981;45.462;10.974;2023-10-13T05:52:46;57.40;;;30.63;;
21639;SDS011;10981;45.462;10.974;2023-10-13T05:55:28;65.28;;;32.60;;
21639;SDS011;10981;45.462;10.974;2023-10-13T05:58:15;62.78;;;32.95;;
21639;SDS011;10981;45.462;10.974;2023-10-13T06:01:03;60.83;;;30.35;;
21639;SDS011;10981;45.462;10.974;2023-10-13T06:04:06;60.30;;;30.70;;
21639;SDS011;10981;45.462;10.974;2023-10-13T06:06:53;58.45;;;31.02;;
21639;SDS011;10981;45.462;10.974;2023-10-13T06:09:40;58.92;;;31.17;;
21639;SDS011;10981;45.462;10.974;2023-10-13T06:12:27;60.65;;;31.35;;
21639;SDS011;10981;45.462;10.974;2023-10-13T06:15:14;54.88;;;31.55;;
21639;SDS011;10981;45.462;10.974;2023-10-13T06:18:01;67.78;;;32.28;;
21639;SDS011;10981;45.462;10.974;2023-10-13T06:20:47;62.38;;;32.28;;
21639;SDS011;10981;45.462;10.974;2023-10-13T06:23:34;65.85;;;31.52;;
21639;SDS011;10981;45.462;10.974;2023-10-13T06:26:21;68.85;;;34.15;;
21639;SDS011;10981;45.462;10.974;2023-10-13T06:29:08;64.07;;;32.42;;
21639;SDS011;10981;45.462;10.974;2023-10-13T06:31:36;60.38;;;32.70;;
21639;SDS011;10981;45.462;10.974;2023-10-13T06:34:05;61.17;;;32.72;;
21639;SDS011;10981;45.462;10.974;2023-10-13T06:36:33;64.35;;;34.33;;
21639;SDS011;10981;45.462;10.974;2023-10-13T06:39:01;62.00;;;32.97;;
21639;SDS011;10981;45.462;10.974;2023-10-13T06:42:02;65.00;;;35.65;;
21639;SDS011;10981;45.462;10.974;2023-10-13T06:44:33;71.35;;;37.22;;
21639;SDS011;10981;45.462;10.974;2023-10-13T06:47:01;67.53;;;35.55;;
21639;SDS011;10981;45.462;10.974;2023-10-13T06:49:32;64.22;;;34.88;;
21639;SDS011;10981;45.462;10.974;2023-10-13T06:52:06;63.30;;;34.42;;
21639;SDS011;10981;45.462;10.974;2023-10-13T06:54:35;62.83;;;36.00;;
21639;SDS011;10981;45.462;10.974;2023-10-13T06:57:06;66.72;;;37.42;;
21639;SDS011;10981;45.462;10.974;2023-10-13T06:59:37;66.82;;;36.90;;
21639;SDS011;10981;45.462;10.974;2023-10-13T07:02:08;97.72;;;50.78;;
21639;SDS011;10981;45.462;10.974;2023-10-13T07:04:54;91.25;;;46.85;;
21639;SDS011;10981;45.462;10.974;2023-10-13T07:07:35;80.00;;;44.20;;
21639;SDS011;10981;45.462;10.974;2023-10-13T07:10:09;71.63;;;37.53;;
21639;SDS011;10981;45.462;10.974;2023-10-13T07:12:41;68.75;;;34.60;;
21639;SDS011;10981;45.462;10.974;2023-10-13T07:15:12;63.45;;;35.33;;
21639;SDS011;10981;45.462;10.974;2023-10-13T07:17:47;64.55;;;34.03;;
21639;SDS011;10981;45.462;10.974;2023-10-13T07:20:22;59.53;;;32.92;;
21639;SDS011;10981;45.462;10.974;2023-10-13T07:23:00;64.10;;;32.92;;
21639;SDS011;10981;45.462;10.974;2023-10-13T07:25:32;65.00;;;34.40;;
21639;SDS011;10981;45.462;10.974;2023-10-13T07:28:04;65.18;;;34.30;;
21639;SDS011;10981;45.462;10.974;2023-10-13T07:30:38;57.25;;;33.60;;
21639;SDS011;10981;45.462;10.974;2023-10-13T07:33:27;70.82;;;34.67;;
21639;SDS011;10981;45.462;10.974;2023-10-13T07:36:03;70.13;;;35.92;;
21639;SDS011;10981;45.462;10.974;2023-10-13T07:38:53;70.63;;;36.08;;
21639;SDS011;10981;45.462;10.974;2023-10-13T07:41:57;71.93;;;35.42;;
21639;SDS011;10981;45.462;10.974;2023-10-13T07:44:32;64.32;;;32.95;;
21639;SDS011;10981;45.462;10.974;2023-10-13T07:47:01;67.43;;;34.38;;
21639;SDS011;10981;45.462;10.974;2023-10-13T07:49:36;64.88;;;34.30;;
21639;SDS011;10981;45.462;10.974;2023-10-13T07:52:10;60.88;;;33.83;;
21639;SDS011;10981;45.462;10.974;2023-10-13T07:54:55;60.85;;;34.70;;
21639;SDS011;10981;45.462;10.974;2023-10-13T07:57:30;72.03;;;34.95;;
21639;SDS011;10981;45.462;10.974;2023-10-13T07:59:58;65.28;;;32.53;;
21639;SDS011;10981;45.462;10.974;2023-10-13T08:02:59;63.45;;;34.50;;
21639;SDS011;10981;45.462;10.974;2023-10-13T08:05:53;68.57;;;34.97;;
21639;SDS011;10981;45.462;10.974;2023-10-13T08:08:49;67.32;;;32.95;;
21639;SDS011;10981;45.462;10.974;2023-10-13T08:11:20;64.63;;;33.95;;
21639;SDS011;10981;45.462;10.974;2023-10-13T08:14:02;60.58;;;35.72;;
21639;SDS011;10981;45.462;10.974;2023-10-13T08:16:53;59.03;;;33.95;;
21639;SDS011;10981;45.462;10.974;2023-10-13T08:19:29;69.13;;;36.10;;
21639;SDS011;10981;45.462;10.974;2023-10-13T08:22:09;75.28;;;37.72;;
21639;SDS011;10981;45.462;10.974;2023-10-13T08:24:50;65.38;;;35.92;;
21639;SDS011;10981;45.462;10.974;2023-10-13T08:27:20;69.60;;;36.63;;
21639;SDS011;10981;45.462;10.974;2023-10-13T08:30:02;66.77;;;38.27;;
21639;SDS011;10981;45.462;10.974;2023-10-13T08:32:50;67.53;;;36.28;;
21639;SDS011;10981;45.462;10.974;2023-10-13T08:35:23;71.38;;;37.72;;
21639;SDS011;10981;45.462;10.974;2023-10-13T08:38:02;73.07;;;37.85;;
21639;SDS011;10981;45.462;10.974;2023-10-13T08:41:00;69.90;;;38.83;;
21639;SDS011;10981;45.462;10.974;2023-10-13T08:43:40;64.03;;;37.60;;
21639;SDS011;10981;45.462;10.974;2023-10-13T08:46:31;70.00;;;37.03;;
21639;SDS011;10981;45.462;10.974;2023-10-13T08:49:19;69.97;;;38.03;;
21639;SDS011;10981;45.462;10.974;2023-10-13T08:51:51;65.80;;;38.45;;
21639;SDS011;10981;45.462;10.974;2023-10-13T08:54:42;68.97;;;37.42;;
21639;SDS011;10981;45.462;10.974;2023-10-13T08:57:30;65.25;;;36.67;;
21639;SDS011;10981;45.462;10.974;2023-10-13T09:00:04;77.63;;;39.20;;
21639;SDS011;10981;45.462;10.974;2023-10-13T09:03:08;80.47;;;40.00;;
21639;SDS011;10981;45.462;10.974;2023-10-13T09:06:07;71.63;;;37.70;;
21639;SDS011;10981;45.462;10.974;2023-10-13T09:08:47;72.70;;;40.22;;
21639;SDS011;10981;45.462;10.974;2023-10-13T09:11:35;72.25;;;39.28;;
21639;SDS011;10981;45.462;10.974;2023-10-13T09:14:19;73.57;;;37.38;;
21639;SDS011;10981;45.462;10.974;2023-10-13T09:17:04;70.18;;;39.63;;
21639;SDS011;10981;45.462;10.974;2023-10-13T09:22:23;70.53;;;39.03;;
21639;SDS011;10981;45.462;10.974;2023-10-13T09:25:03;73.30;;;38.63;;
21639;SDS011;10981;45.462;10.974;2023-10-13T09:27:35;65.65;;;37.90;;
21639;SDS011;10981;45.462;10.974;2023-10-13T09:30:05;70.30;;;39.72;;
21639;SDS011;10981;45.462;10.974;2023-10-13T09:32:45;73.53;;;41.13;;
21639;SDS011;10981;45.462;10.974;2023-10-13T09:35:17;80.03;;;40.28;;
21639;SDS011;10981;45.462;10.974;2023-10-13T09:37:50;77.03;;;40.70;;
21639;SDS011;10981;45.462;10.974;2023-10-13T09:40:18;65.72;;;37.75;;
21639;SDS011;10981;45.462;10.974;2023-10-13T09:42:54;75.55;;;40.22;;
21639;SDS011;10981;45.462;10.974;2023-10-13T09:45:25;73.78;;;40.60;;
21639;SDS011;10981;45.462;10.974;2023-10-13T09:48:01;72.85;;;40.50;;
21639;SDS011;10981;45.462;10.974;2023-10-13T09:50:36;75.90;;;40.00;;
21639;SDS011;10981;45.462;10.974;2023-10-13T09:53:11;68.20;;;40.05;;
21639;SDS011;10981;45.462;10.974;2023-10-13T09:55:46;86.07;;;45.35;;
21639;SDS011;10981;45.462;10.974;2023-10-13T09:58:18;79.85;;;44.58;;
21639;SDS011;10981;45.462;10.974;2023-10-13T10:00:56;81.63;;;42.97;;
21639;SDS011;10981;45.462;10.974;2023-10-13T10:03:44;72.90;;;43.65;;
21639;SDS011;10981;45.462;10.974;2023-10-13T10:06:39;80.05;;;42.70;;
21639;SDS011;10981;45.462;10.974;2023-10-13T10:09:19;80.63;;;42.53;;
21639;SDS011;10981;45.462;10.974;2023-10-13T10:12:13;83.90;;;43.13;;
21639;SDS011;10981;45.462;10.974;2023-10-13T10:18:20;76.47;;;41.30;;
21639;SDS011;10981;45.462;10.974;2023-10-13T10:21:02;74.07;;;41.20;;
21639;SDS011;10981;45.462;10.974;2023-10-13T10:23:35;75.30;;;40.47;;
21639;SDS011;10981;45.462;10.974;2023-10-13T10:26:10;58.65;;;38.10;;
21639;SDS011;10981;45.462;10.974;2023-10-13T10:28:42;72.50;;;38.40;;
21639;SDS011;10981;45.462;10.974;2023-10-13T10:31:11;62.22;;;34.92;;
21639;SDS011;10981;45.462;10.974;2023-10-13T10:33:41;66.10;;;35.60;;
21639;SDS011;10981;45.462;10.974;2023-10-13T10:36:10;64.25;;;37.72;;
21639;SDS011;10981;45.462;10.974;2023-10-13T10:38:51;61.50;;;34.83;;
21639;SDS011;10981;45.462;10.974;2023-10-13T10:41:25;60.22;;;31.50;;
21639;SDS011;10981;45.462;10.974;2023-10-13T10:44:09;59.83;;;32.88;;
21639;SDS011;10981;45.462;10.974;2023-10-13T10:46:43;64.70;;;32.00;;
21639;SDS011;10981;45.462;10.974;2023-10-13T10:49:21;60.28;;;31.83;;
21639;SDS011;10981;45.462;10.974;2023-10-13T10:51:59;56.55;;;32.15;;
21639;SDS011;10981;45.462;10.974;2023-10-13T10:54:28;57.53;;;31.38;;
21639;SDS011;10981;45.462;10.974;2023-10-13T10:56:59;50.28;;;29.00;;
21639;SDS011;10981;45.462;10.974;2023-10-13T10:59:45;48.30;;;26.90;;
21639;SDS011;10981;45.462;10.974;2023-10-13T11:02:13;47.08;;;28.83;;
21639;SDS011;10981;45.462;10.974;2023-10-13T11:04:52;45.97;;;26.35;;
21639;SDS011;10981;45.462;10.974;2023-10-13T11:07:22;40.25;;;23.83;;
21639;SDS011;10981;45.462;10.974;2023-10-13T11:09:52;43.08;;;24.05;;
21639;SDS011;10981;45.462;10.974;2023-10-13T11:12:34;41.72;;;23.25;;
21639;SDS011;10981;45.462;10.974;2023-10-13T11:15:03;36.72;;;22.77;;
21639;SDS011;10981;45.462;10.974;2023-10-13T11:18:00;42.08;;;24.17;;
21639;SDS011;10981;45.462;10.974;2023-10-13T11:20:33;38.13;;;23.63;;
21639;SDS011;10981;45.462;10.974;2023-10-13T11:23:13;37.95;;;23.30;;
21639;SDS011;10981;45.462;10.974;2023-10-13T11:25:42;42.95;;;24.20;;
21639;SDS011;10981;45.462;10.974;2023-10-13T11:28:15;38.20;;;23.60;;
21639;SDS011;10981;45.462;10.974;2023-10-13T11:33:19;35.78;;;21.77;;
21639;SDS011;10981;45.462;10.974;2023-10-13T11:35:56;31.90;;;20.40;;
21639;SDS011;10981;45.462;10.974;2023-10-13T11:38:29;36.88;;;22.35;;
21639;SDS011;10981;45.462;10.974;2023-10-13T11:41:19;39.90;;;23.90;;
21639;SDS011;10981;45.462;10.974;2023-10-13T11:43:51;35.88;;;21.23;;
21639;SDS011;10981;45.462;10.974;2023-10-13T11:46:34;34.55;;;21.05;;
21639;SDS011;10981;45.462;10.974;2023-10-13T11:49:04;31.52;;;17.85;;
21639;SDS011;10981;45.462;10.974;2023-10-13T11:56:42;26.83;;;16.00;;
21639;SDS011;10981;45.462;10.974;2023-10-13T11:59:12;25.05;;;15.18;;
21639;SDS011;10981;45.462;10.974;2023-10-13T12:04:36;25.77;;;13.13;;
21639;SDS011;10981;45.462;10.974;2023-10-13T12:07:11;22.63;;;11.88;;
21639;SDS011;10981;45.462;10.974;2023-10-13T12:09:48;25.55;;;12.60;;
21639;SDS011;10981;45.462;10.974;2023-10-13T12:14:50;18.55;;;12.80;;
21639;SDS011;10981;45.462;10.974;2023-10-13T12:17:26;27.20;;;13.07;;
21639;SDS011;10981;45.462;10.974;2023-10-13T12:19:59;19.85;;;13.50;;
21639;SDS011;10981;45.462;10.974;2023-10-13T12:22:28;23.02;;;13.57;;
21639;SDS011;10981;45.462;10.974;2023-10-13T12:25:06;23.52;;;12.75;;
21639;SDS011;10981;45.462;10.974;2023-10-13T12:27:54;24.52;;;14.07;;
21639;SDS011;10981;45.462;10.974;2023-10-13T12:30:26;25.85;;;14.25;;
21639;SDS011;10981;45.462;10.974;2023-10-13T12:33:16;24.48;;;15.18;;
21639;SDS011;10981;45.462;10.974;2023-10-13T12:35:55;20.77;;;14.18;;
21639;SDS011;10981;45.462;10.974;2023-10-13T12:38:38;24.60;;;13.88;;
21639;SDS011;10981;45.462;10.974;2023-10-13T12:41:19;23.60;;;14.43;;
21639;SDS011;10981;45.462;10.974;2023-10-13T12:44:06;28.58;;;15.57;;
21639;SDS011;10981;45.462;10.974;2023-10-13T12:46:53;18.25;;;13.43;;
21639;SDS011;10981;45.462;10.974;2023-10-13T12:49:41;27.55;;;13.23;;
21639;SDS011;10981;45.462;10.974;2023-10-13T12:52:09;20.48;;;11.80;;
21639;SDS011;10981;45.462;10.974;2023-10-13T12:59:52;15.45;;;9.45;;
21639;SDS011;10981;45.462;10.974;2023-10-13T13:02:22;18.25;;;10.57;;
21639;SDS011;10981;45.462;10.974;2023-10-13T13:07:29;20.42;;;10.40;;
21639;SDS011;10981;45.462;10.974;2023-10-13T13:09:58;15.68;;;9.65;;
21639;SDS011;10981;45.462;10.974;2023-10-13T13:12:27;21.73;;;10.45;;
21639;SDS011;10981;45.462;10.974;2023-10-13T13:14:57;25.10;;;11.02;;
21639;SDS011;10981;45.462;10.974;2023-10-13T13:17:27;23.77;;;11.73;;
21639;SDS011;10981;45.462;10.974;2023-10-13T13:19:59;22.10;;;11.23;;
21639;SDS011;10981;45.462;10.974;2023-10-13T13:22:29;16.38;;;9.80;;
21639;SDS011;10981;45.462;10.974;2023-10-13T13:25:00;21.23;;;10.15;;
21639;SDS011;10981;45.462;10.974;2023-10-13T13:27:28;21.77;;;12.75;;
21639;SDS011;10981;45.462;10.974;2023-10-13T13:30:00;26.25;;;12.50;;
21639;SDS011;10981;45.462;10.974;2023-10-13T13:32:28;24.40;;;11.27;;
21639;SDS011;10981;45.462;10.974;2023-10-13T13:34:58;19.40;;;10.70;;
21639;SDS011;10981;45.462;10.974;2023-10-13T13:37:42;19.00;;;12.40;;
21639;SDS011;10981;45.462;10.974;2023-10-13T13:40:12;21.40;;;12.90;;
21639;SDS011;10981;45.462;10.974;2023-10-13T13:42:45;24.67;;;14.63;;
21639;SDS011;10981;45.462;10.974;2023-10-13T13:45:15;31.33;;;19.73;;
21639;SDS011;10981;45.462;10.974;2023-10-13T13:48:00;33.38;;;18.13;;
21639;SDS011;10981;45.462;10.974;2023-10-13T13:50:37;30.55;;;15.95;;
21639;SDS011;10981;45.462;10.974;2023-10-13T13:53:08;37.90;;;19.38;;
21639;SDS011;10981;45.462;10.974;2023-10-13T13:55:41;30.83;;;16.85;;
21639;SDS011;10981;45.462;10.974;2023-10-13T13:58:09;33.58;;;19.98;;
21639;SDS011;10981;45.462;10.974;2023-10-13T14:00:41;30.17;;;19.23;;
21639;SDS011;10981;45.462;10.974;2023-10-13T14:03:19;25.77;;;15.77;;
21639;SDS011;10981;45.462;10.974;2023-10-13T14:06:03;38.55;;;20.00;;
21639;SDS011;10981;45.462;10.974;2023-10-13T14:08:36;34.75;;;19.98;;
21639;SDS011;10981;45.462;10.974;2023-10-13T14:11:08;30.58;;;18.38;;
21639;SDS011;10981;45.462;10.974;2023-10-13T14:13:40;30.52;;;20.77;;
21639;SDS011;10981;45.462;10.974;2023-10-13T14:16:18;33.38;;;19.67;;
21639;SDS011;10981;45.462;10.974;2023-10-13T14:18:56;30.60;;;18.63;;
21639;SDS011;10981;45.462;10.974;2023-10-13T14:21:25;31.70;;;19.15;;
21639;SDS011;10981;45.462;10.974;2023-10-13T14:23:58;31.77;;;18.37;;
21639;SDS011;10981;45.462;10.974;2023-10-13T14:26:28;33.30;;;21.63;;
21639;SDS011;10981;45.462;10.974;2023-10-13T14:28:56;32.38;;;19.15;;
21639;SDS011;10981;45.462;10.974;2023-10-13T14:31:37;32.25;;;19.65;;
21639;SDS011;10981;45.462;10.974;2023-10-13T14:34:08;27.20;;;18.90;;
21639;SDS011;10981;45.462;10.974;2023-10-13T14:36:42;27.25;;;17.45;;
21639;SDS011;10981;45.462;10.974;2023-10-13T14:39:15;33.78;;;23.27;;
21639;SDS011;10981;45.462;10.974;2023-10-13T14:41:45;40.50;;;24.50;;
21639;SDS011;10981;45.462;10.974;2023-10-13T14:44:15;37.17;;;22.75;;
21639;SDS011;10981;45.462;10.974;2023-10-13T14:46:43;37.63;;;22.67;;
21639;SDS011;10981;45.462;10.974;2023-10-13T14:49:12;39.67;;;23.30;;
21639;SDS011;10981;45.462;10.974;2023-10-13T14:54:26;29.83;;;18.85;;
21639;SDS011;10981;45.462;10.974;2023-10-13T14:57:01;30.70;;;20.38;;
21639;SDS011;10981;45.462;10.974;2023-10-13T14:59:30;26.50;;;18.10;;
21639;SDS011;10981;45.462;10.974;2023-10-13T15:02:06;25.33;;;16.80;;
21639;SDS011;10981;45.462;10.974;2023-10-13T15:04:34;33.47;;;16.33;;
21639;SDS011;10981;45.462;10.974;2023-10-13T15:07:06;26.63;;;15.40;;
21639;SDS011;10981;45.462;10.974;2023-10-13T15:09:34;28.48;;;14.70;;
21639;SDS011;10981;45.462;10.974;2023-10-13T15:12:02;23.15;;;14.13;;
21639;SDS011;10981;45.462;10.974;2023-10-13T15:14:32;21.67;;;13.50;;
21639;SDS011;10981;45.462;10.974;2023-10-13T15:17:02;20.38;;;13.40;;
21639;SDS011;10981;45.462;10.974;2023-10-13T15:19:33;21.42;;;13.32;;
21639;SDS011;10981;45.462;10.974;2023-10-13T15:22:10;20.92;;;12.75;;
21639;SDS011;10981;45.462;10.974;2023-10-13T15:24:48;23.13;;;13.32;;
21639;SDS011;10981;45.462;10.974;2023-10-13T15:27:39;26.08;;;15.45;;
21639;SDS011;10981;45.462;10.974;2023-10-13T15:30:10;24.58;;;14.80;;
21639;SDS011;10981;45.462;10.974;2023-10-13T15:32:51;21.35;;;14.07;;
21639;SDS011;10981;45.462;10.974;2023-10-13T15:35:21;21.98;;;13.95;;
21639;SDS011;10981;45.462;10.974;2023-10-13T15:37:49;21.45;;;12.68;;
21639;SDS011;10981;45.462;10.974;2023-10-13T15:40:19;23.80;;;13.13;;